Time;durP1;ratioP1;P1;durP2;ratioP2;P2;SDS_P1;SDS_P2;PMS_P1;PMS_P2;Temp;Humidity;BMP_temperature;BMP_pressure;BME280_temperature;BME280_humidity;BME280_pressure;Samples;Min_cycle;Max_cycle;Signal;HPM_P1;HPM_P2
2022/07/20 00:00:59;;;;;;;9.95;3.53;;;;;;;19.89;100.00;100703.00;5098553;28;20056;-85
2022/07/20 00:03:26;;;;;;;7.43;2.80;;;;;;;19.75;100.00;100697.91;5098895;28;20489;-86
2022/07/20 00:05:52;;;;;;;11.75;3.97;;;;;;;19.73;100.00;100713.06;5083652;28;20049;-86
2022/07/20 00:11:19;;;;;;;9.25;3.90;;;;;;;19.79;100.00;100704.66;5102087;28;20048;-86
2022/07/20 00:11:23;;;;;;;9.10;3.58;;;;;;;19.38;100.00;100697.16;5097618;28;20044;-86
2022/07/20 00:14:01;;;;;;;13.63;4.57;;;;;;;19.38;100.00;100705.97;5081539;28;20473;-85
2022/07/20 00:16:32;;;;;;;8.90;3.75;;;;;;;19.49;100.00;100711.31;5097086;28;20040;-86
2022/07/20 00:18:58;;;;;;;8.55;3.22;;;;;;;19.71;100.00;100707.88;5086913;28;20435;-86
2022/07/20 00:21:26;;;;;;;13.95;5.60;;;;;;;19.27;100.00;100711.25;5082426;28;20497;-85
2022/07/20 00:23:54;;;;;;;12.88;4.90;;;;;;;19.50;100.00;100717.47;5085139;28;20051;-85
2022/07/20 00:26:21;;;;;;;10.98;4.30;;;;;;;19.59;100.00;100718.59;5097268;28;20042;-85
2022/07/20 00:28:50;;;;;;;10.05;3.90;;;;;;;19.49;100.00;100697.19;5083772;28;20094;-86
2022/07/20 00:31:20;;;;;;;9.82;3.70;;;;;;;19.59;100.00;100710.63;5084246;28;20055;-85
2022/07/20 00:33:48;;;;;;;11.95;4.13;;;;;;;19.59;100.00;100724.75;5089251;28;20051;-85
2022/07/20 00:36:17;;;;;;;10.30;4.15;;;;;;;19.48;100.00;100727.38;5083433;28;20085;-86
2022/07/20 00:38:44;;;;;;;10.43;3.60;;;;;;;19.32;100.00;100725.03;5096600;28;20055;-86
2022/07/20 00:41:12;;;;;;;10.00;3.78;;;;;;;19.42;100.00;100738.44;5083853;28;20054;-85
2022/07/20 00:44:00;;;;;;;8.70;3.65;;;;;;;19.72;100.00;100746.78;5100411;28;20043;-85
2022/07/20 00:46:29;;;;;;;12.20;4.90;;;;;;;19.70;100.00;100738.06;5084550;28;20043;-86
2022/07/20 00:48:56;;;;;;;10.02;3.50;;;;;;;19.58;100.00;100731.00;5089206;28;20109;-86
2022/07/20 00:51:24;;;;;;;11.90;4.07;;;;;;;19.68;100.00;100733.84;5090253;28;20486;-86
2022/07/20 00:53:51;;;;;;;9.65;3.90;;;;;;;19.75;100.00;100742.22;5085441;28;20050;-86
2022/07/20 00:56:19;;;;;;;10.27;3.97;;;;;;;19.60;100.00;100749.50;5073524;28;20044;-86
2022/07/20 00:58:47;;;;;;;12.10;4.00;;;;;;;19.67;100.00;100756.03;5067991;28;20048;-86
2022/07/20 01:01:15;;;;;;;13.07;4.57;;;;;;;19.49;100.00;100735.19;5075721;28;20040;-86
2022/07/20 01:03:43;;;;;;;9.88;3.25;;;;;;;19.48;100.00;100740.66;5062065;28;20052;-86
2022/07/20 01:06:10;;;;;;;9.63;4.07;;;;;;;19.58;100.00;100730.16;5066591;28;20040;-86
2022/07/20 01:08:37;;;;;;;9.38;3.95;;;;;;;19.77;100.00;100703.09;5074466;28;20131;-85
2022/07/20 01:11:05;;;;;;;11.15;4.35;;;;;;;19.48;100.00;100708.78;5086425;28;20404;-85
2022/07/20 01:13:32;;;;;;;13.15;5.32;;;;;;;19.65;100.00;100708.34;5075541;28;20048;-85
2022/07/20 01:15:59;;;;;;;10.18;3.40;;;;;;;19.55;100.00;100696.75;5090863;28;20060;-86
2022/07/20 01:18:26;;;;;;;8.63;3.63;;;;;;;19.63;100.00;100704.94;5084859;28;20397;-85
2022/07/20 01:21:19;;;;;;;8.70;3.20;;;;;;;19.73;100.00;100713.06;5061615;28;20048;-85
2022/07/20 01:23:46;;;;;;;12.70;3.70;;;;;;;19.59;100.00;100700.00;5068218;28;20063;-85
2022/07/20 01:26:18;;;;;;;14.82;5.28;;;;;;;18.94;100.00;100688.88;5090264;28;20051;-85
2022/07/20 01:28:46;;;;;;;11.25;4.28;;;;;;;19.40;100.00;100697.91;5081282;28;20056;-85
2022/07/20 01:31:13;;;;;;;11.85;4.03;;;;;;;19.39;100.00;100682.91;5075015;28;20048;-86
2022/07/20 01:33:41;;;;;;;11.98;4.05;;;;;;;19.56;100.00;100701.06;5082240;28;20441;-85
2022/07/20 01:36:08;;;;;;;10.32;3.88;;;;;;;19.37;100.00;100706.09;5093541;28;20058;-86
2022/07/20 01:38:34;;;;;;;9.20;3.65;;;;;;;19.39;100.00;100701.50;5081998;28;20044;-85
2022/07/20 01:41:01;;;;;;;8.70;3.75;;;;;;;19.33;100.00;100695.69;5054670;28;20048;-85
2022/07/20 01:43:28;;;;;;;11.07;4.07;;;;;;;19.38;100.00;100705.97;5084032;28;20044;-86
2022/07/20 01:45:55;;;;;;;12.38;3.95;;;;;;;19.29;100.00;100714.63;5077081;28;20050;-86
2022/07/20 01:48:22;;;;;;;10.20;3.88;;;;;;;19.08;100.00;100699.31;5064348;28;20045;-86
2022/07/20 01:50:48;;;;;;;12.13;4.45;;;;;;;19.05;100.00;100701.38;5082442;28;20047;-86
2022/07/20 01:53:15;;;;;;;12.23;5.07;;;;;;;18.89;100.00;100717.56;5087534;28;20040;-86
2022/07/20 01:55:42;;;;;;;13.27;5.47;;;;;;;18.88;100.00;100705.28;5080562;28;20134;-86
2022/07/20 01:58:09;;;;;;;11.98;3.97;;;;;;;19.00;100.00;100720.28;5082785;28;20056;-87
2022/07/20 02:00:36;;;;;;;10.90;3.60;;;;;;;19.10;100.00;100728.41;5076004;28;20071;-86
2022/07/20 02:03:03;;;;;;;11.82;3.97;;;;;;;19.25;100.00;100724.63;5087480;28;20051;-86
2022/07/20 02:05:30;;;;;;;9.57;3.63;;;;;;;19.28;100.00;100719.09;5103116;28;20043;-86
2022/07/20 02:07:56;;;;;;;10.50;3.47;;;;;;;19.21;100.00;100725.84;5061362;28;20055;-86
2022/07/20 02:10:23;;;;;;;9.57;3.55;;;;;;;19.14;100.00;100728.09;5095373;28;20067;-87
2022/07/20 02:12:50;;;;;;;10.95;3.65;;;;;;;19.11;100.00;100743.38;5093699;28;20048;-86
2022/07/20 02:18:07;;;;;;;6.97;2.83;;;;;;;19.40;100.00;100740.38;5083875;28;20122;-86
2022/07/20 02:20:34;;;;;;;8.98;2.72;;;;;;;19.12;100.00;100732.66;5102696;28;20075;-86
2022/07/20 02:23:03;;;;;;;12.75;4.35;;;;;;;18.80;100.00;100729.66;5081618;28;20541;-86
2022/07/20 02:25:30;;;;;;;9.85;3.28;;;;;;;19.08;100.00;100727.69;5065435;28;20048;-86
2022/07/20 02:28:06;;;;;;;9.50;3.28;;;;;;;19.26;100.00;100723.66;5071873;28;20379;-86
2022/07/20 02:30:33;;;;;;;10.15;3.55;;;;;;;19.27;100.00;100724.53;5073128;28;20118;-86
2022/07/20 02:33:01;;;;;;;9.48;3.25;;;;;;;19.31;100.00;100715.34;5088209;28;20139;-86
2022/07/20 02:35:28;;;;;;;9.35;3.30;;;;;;;19.22;100.00;100740.78;5112309;28;20047;-86
2022/07/20 02:37:57;;;;;;;8.65;3.20;;;;;;;19.13;100.00;100737.00;5080453;28;20048;-86
2022/07/20 02:40:24;;;;;;;10.73;3.22;;;;;;;19.13;100.00;100730.84;5080144;28;20054;-86
2022/07/20 02:42:50;;;;;;;10.45;3.72;;;;;;;19.14;100.00;100745.78;5078215;28;20136;-86
2022/07/20 02:45:17;;;;;;;9.95;3.38;;;;;;;18.91;100.00;100739.50;5058896;28;20473;-86
2022/07/20 02:47:46;;;;;;;9.98;3.55;;;;;;;19.07;100.00;100760.47;5085075;28;20048;-86
2022/07/20 02:50:14;;;;;;;9.02;2.83;;;;;;;18.99;100.00;100709.78;5081821;28;20078;-86
2022/07/20 02:52:42;;;;;;;8.70;2.90;;;;;;;19.20;100.00;100752.47;5066000;28;20135;-86
2022/07/20 02:55:09;;;;;;;9.32;3.20;;;;;;;19.16;100.00;100750.03;5058700;28;20048;-86
2022/07/20 02:57:36;;;;;;;9.65;3.13;;;;;;;19.11;100.00;100746.03;5059995;28;20135;-86
2022/07/20 03:00:07;;;;;;;8.40;2.78;;;;;;;19.25;100.00;100760.94;5082288;28;20051;-86
2022/07/20 03:02:34;;;;;;;8.20;3.35;;;;;;;19.25;100.00;100747.69;5105723;28;20063;-86
2022/07/20 03:05:01;;;;;;;10.98;3.05;;;;;;;19.31;100.00;100718.00;5101410;28;20048;-86
2022/07/20 03:07:28;;;;;;;10.05;3.72;;;;;;;19.32;100.00;100735.66;5083080;28;20044;-86
2022/07/20 03:09:55;;;;;;;9.98;2.90;;;;;;;19.13;100.00;100704.31;5074611;28;20101;-86
2022/07/20 03:12:21;;;;;;;7.53;2.92;;;;;;;19.06;100.00;100689.81;5069160;28;20058;-86
2022/07/20 03:14:48;;;;;;;8.60;2.80;;;;;;;19.09;100.00;100719.59;5073580;28;20130;-86
2022/07/20 03:17:16;;;;;;;8.77;3.47;;;;;;;19.08;100.00;100719.72;5073402;28;20047;-85
2022/07/20 03:19:44;;;;;;;7.47;2.80;;;;;;;19.21;100.00;100731.13;5091282;28;20058;-86
2022/07/20 03:22:11;;;;;;;7.60;2.88;;;;;;;19.32;100.00;100744.44;5091019;28;20706;-86
2022/07/20 03:24:38;;;;;;;8.10;2.97;;;;;;;19.37;100.00;100733.50;5077532;28;20043;-86
2022/07/20 03:27:04;;;;;;;8.02;2.45;;;;;;;19.29;100.00;100718.13;5093671;28;20050;-87
2022/07/20 03:29:31;;;;;;;7.35;2.45;;;;;;;19.33;100.00;100724.03;5068836;28;20048;-86
2022/07/20 03:31:58;;;;;;;7.70;2.60;;;;;;;19.30;100.00;100735.75;5069176;28;20131;-86
2022/07/20 03:34:25;;;;;;;9.45;3.40;;;;;;;19.26;100.00;100723.66;5093439;28;20123;-86
2022/07/20 03:36:52;;;;;;;13.07;3.40;;;;;;;19.28;100.00;100735.03;5071157;28;20058;-86
2022/07/20 03:39:19;;;;;;;9.70;3.33;;;;;;;19.41;100.00;100750.88;5091008;28;20043;-86
2022/07/20 03:41:45;;;;;;;7.05;2.65;;;;;;;19.43;100.00;100746.28;5072982;28;20056;-86
2022/07/20 03:44:12;;;;;;;7.50;2.95;;;;;;;19.32;100.00;100765.69;5072610;28;20489;-86
2022/07/20 03:46:39;;;;;;;8.10;3.03;;;;;;;19.48;100.00;100754.78;5073317;28;20050;-85
2022/07/20 03:49:06;;;;;;;6.80;2.65;;;;;;;19.66;100.00;100767.63;5082460;28;20056;-86
2022/07/20 03:51:33;;;;;;;8.02;2.85;;;;;;;19.79;100.00;100776.38;5081497;28;20086;-86
2022/07/20 03:53:59;;;;;;;8.80;2.85;;;;;;;19.72;100.00;100768.03;5087694;28;20496;-86
2022/07/20 03:56:28;;;;;;;8.00;3.10;;;;;;;19.56;100.00;100754.19;5078174;28;20050;-86
2022/07/20 03:58:54;;;;;;;7.40;2.58;;;;;;;19.47;100.00;100750.41;5065584;28;20048;-86
2022/07/20 04:01:21;;;;;;;8.65;3.38;;;;;;;19.14;100.00;100746.66;5075659;28;20047;-86
2022/07/20 04:03:48;;;;;;;8.15;3.10;;;;;;;19.46;100.00;100753.19;5079681;28;20512;-86
2022/07/20 04:06:14;;;;;;;7.40;2.80;;;;;;;19.55;100.00;100741.88;5075148;28;20055;-86
2022/07/20 04:08:41;;;;;;;8.18;2.90;;;;;;;19.69;100.00;100748.81;5056152;28;20063;-86
2022/07/20 04:11:08;;;;;;;11.25;4.28;;;;;;;19.38;100.00;100737.81;5083278;28;20047;-86
2022/07/20 04:13:35;;;;;;;9.35;3.47;;;;;;;19.40;100.00;100727.94;5061408;28;20051;-86
2022/07/20 04:16:01;;;;;;;10.10;3.88;;;;;;;19.32;100.00;100744.44;5066973;28;20055;-87
2022/07/20 04:18:28;;;;;;;11.02;3.30;;;;;;;19.24;100.00;100730.88;5111521;28;20078;-86
2022/07/20 04:20:55;;;;;;;11.10;3.92;;;;;;;19.11;100.00;100722.16;5099327;28;20052;-86
2022/07/20 04:23:22;;;;;;;13.30;4.72;;;;;;;18.94;100.00;100728.69;5074276;28;20122;-86
2022/07/20 04:25:49;;;;;;;10.35;3.95;;;;;;;19.04;100.00;100736.84;5087409;28;20509;-86
2022/07/20 04:28:16;;;;;;;10.35;4.95;;;;;;;18.90;100.00;100722.75;5073838;28;20066;-86
2022/07/20 04:30:42;;;;;;;8.93;3.50;;;;;;;18.86;100.00;100731.06;5080127;28;20044;-85
2022/07/20 04:33:10;;;;;;;11.63;3.90;;;;;;;18.98;100.00;100732.78;5082353;28;20494;-86
2022/07/20 04:35:38;;;;;;;12.75;4.30;;;;;;;18.89;100.00;100729.03;5093708;28;20096;-86
2022/07/20 04:38:04;;;;;;;11.73;4.53;;;;;;;18.95;100.00;100730.41;5091899;28;20062;-86
2022/07/20 04:40:31;;;;;;;8.18;3.35;;;;;;;19.12;100.00;100734.44;5060156;28;20040;-86
2022/07/20 04:43:02;;;;;;;8.82;3.88;;;;;;;19.10;100.00;100734.56;5105167;28;20041;-86
2022/07/20 04:45:29;;;;;;;10.30;4.00;;;;;;;19.23;100.00;100731.88;5071047;28;20546;-86
2022/07/20 04:47:56;;;;;;;11.75;5.25;;;;;;;19.07;100.00;100729.50;5076043;28;20389;-86
2022/07/20 04:50:23;;;;;;;12.65;4.95;;;;;;;18.81;100.00;100738.47;5089353;28;20531;-86
2022/07/20 04:52:50;;;;;;;14.70;5.85;;;;;;;19.18;100.00;100741.13;5074691;28;20051;-86
2022/07/20 04:55:16;;;;;;;14.05;5.55;;;;;;;19.32;100.00;100725.03;5061550;28;20063;-86
2022/07/20 04:57:43;;;;;;;13.85;5.57;;;;;;;19.15;100.00;100744.84;5075477;28;20145;-86
2022/07/20 05:00:11;;;;;;;13.85;5.60;;;;;;;19.00;100.00;100745.97;5054781;28;20049;-86
2022/07/20 05:02:38;;;;;;;14.43;4.97;;;;;;;19.23;100.00;100739.81;5061373;28;20048;-86
2022/07/20 05:05:05;;;;;;;10.55;4.22;;;;;;;19.27;100.00;100745.75;5062552;28;20402;-86
2022/07/20 05:07:32;;;;;;;15.15;5.72;;;;;;;19.13;100.00;100742.31;5090712;28;20048;-86
2022/07/20 05:09:59;;;;;;;12.32;4.78;;;;;;;19.06;100.00;100750.84;5063152;28;20486;-86
2022/07/20 05:12:25;;;;;;;14.55;5.25;;;;;;;19.05;100.00;100765.03;5055460;28;20433;-86
2022/07/20 05:14:52;;;;;;;16.58;6.88;;;;;;;18.72;100.00;100756.72;5067800;28;20048;-86
2022/07/20 05:17:19;;;;;;;13.57;5.93;;;;;;;18.92;100.00;100771.25;5090972;28;20128;-87
2022/07/20 05:19:46;;;;;;;14.30;4.72;;;;;;;18.79;100.00;100765.09;5075855;28;20047;-86
2022/07/20 05:22:12;;;;;;;13.35;4.55;;;;;;;18.88;100.00;100775.09;5087795;28;20051;-86
2022/07/20 05:24:39;;;;;;;15.55;5.25;;;;;;;18.70;100.00;100773.72;5081514;28;20043;-86
2022/07/20 05:27:06;;;;;;;12.68;4.18;;;;;;;18.89;100.00;100782.09;5079556;28;20475;-86
2022/07/20 05:29:32;;;;;;;12.45;4.18;;;;;;;19.02;100.00;100774.09;5078268;28;20044;-85
2022/07/20 05:31:59;;;;;;;12.60;4.38;;;;;;;19.01;100.00;100769.72;5056081;28;20670;-86
2022/07/20 05:34:26;;;;;;;12.57;4.57;;;;;;;18.58;100.00;100778.94;5057096;28;20070;-86
2022/07/20 05:36:52;;;;;;;9.75;3.88;;;;;;;18.79;100.00;100778.38;5080410;28;20040;-86
2022/07/20 05:39:19;;;;;;;9.77;3.70;;;;;;;18.66;100.00;100766.94;5093007;28;20087;-86
2022/07/20 05:41:47;;;;;;;11.25;2.92;;;;;;;18.72;100.00;100777.94;5092593;28;20056;-86
2022/07/20 05:44:14;;;;;;;8.70;2.63;;;;;;;18.83;100.00;100787.81;5063114;28;20132;-86
2022/07/20 05:46:41;;;;;;;8.45;2.78;;;;;;;18.85;100.00;100791.22;5077653;28;20059;-86
2022/07/20 05:49:08;;;;;;;6.85;2.25;;;;;;;18.80;100.00;100795.97;5071795;28;20054;-85
2022/07/20 05:51:35;;;;;;;7.55;2.75;;;;;;;19.06;100.00;100810.03;5071468;28;20475;-86
2022/07/20 05:54:02;;;;;;;9.20;2.70;;;;;;;19.02;100.00;100808.59;5069065;28;20048;-85
2022/07/20 05:56:29;;;;;;;8.80;2.50;;;;;;;18.87;100.00;100804.38;5076079;28;20044;-85
2022/07/20 05:58:56;;;;;;;11.52;2.55;;;;;;;18.96;100.00;100788.66;5075785;28;20058;-84
2022/07/20 06:01:23;;;;;;;9.10;2.33;;;;;;;18.92;100.00;100778.34;5088007;28;20413;-86
2022/07/20 06:03:50;;;;;;;8.82;2.70;;;;;;;19.63;100.00;100824.47;5065984;28;20045;-85
2022/07/20 06:06:17;;;;;;;6.93;2.10;;;;;;;20.11;100.00;100836.88;5093161;28;20046;-85
2022/07/20 06:08:43;;;;;;;8.40;2.50;;;;;;;20.13;100.00;100831.44;5075023;28;20087;-85
2022/07/20 06:11:31;;;;;;;6.07;1.77;;;;;;;20.40;100.00;100821.34;5067632;28;20051;-86
2022/07/20 06:13:58;;;;;;;13.43;2.50;;;;;;;20.37;100.00;100836.69;5064141;28;20048;-86
2022/07/20 06:16:25;;;;;;;8.27;2.35;;;;;;;20.55;100.00;100821.09;5074976;28;20048;-86
2022/07/20 06:18:51;;;;;;;8.52;2.00;;;;;;;20.47;100.00;100814.59;5075652;28;20056;-86
2022/07/20 06:21:19;;;;;;;10.20;1.80;;;;;;;21.61;100.00;100849.94;5074697;28;20048;-86
2022/07/20 06:23:46;;;;;;;9.60;2.75;;;;;;;21.11;100.00;100813.13;5090150;28;20043;-85
2022/07/20 06:26:12;;;;;;;7.72;2.58;;;;;;;21.21;100.00;100834.50;5085425;28;20482;-86
2022/07/20 06:28:39;;;;;;;8.15;3.15;;;;;;;21.17;100.00;100857.88;5055422;28;20055;-86
2022/07/20 06:31:06;;;;;;;9.88;2.78;;;;;;;21.29;100.00;100845.38;5085602;28;20739;-86
2022/07/20 06:33:33;;;;;;;9.10;3.05;;;;;;;21.54;100.00;100833.59;5083065;28;20044;-86
2022/07/20 06:36:00;;;;;;;8.68;3.08;;;;;;;21.73;100.00;100840.94;5066710;28;20054;-85
2022/07/20 06:38:27;;;;;;;9.73;3.67;;;;;;;21.29;100.00;100860.53;5091184;28;20048;-86
2022/07/20 06:40:54;;;;;;;9.77;3.25;;;;;;;21.23;100.00;100844.06;5060731;28;20048;-85
2022/07/20 06:43:23;;;;;;;15.20;3.28;;;;;;;21.27;100.00;100865.97;5074041;28;20050;-86
2022/07/20 06:45:50;;;;;;;10.57;3.10;;;;;;;21.94;100.00;100867.59;5096473;28;20048;-86
2022/07/20 06:48:16;;;;;;;9.95;2.97;;;;;;;21.14;100.00;100862.59;5083283;28;20465;-87
2022/07/20 06:50:43;;;;;;;7.75;2.58;;;;;;;21.08;100.00;100858.63;5082978;28;20052;-87
2022/07/20 06:53:10;;;;;;;7.40;2.50;;;;;;;20.74;100.00;100873.75;5085361;28;20371;-87
2022/07/20 06:55:38;;;;;;;7.93;2.42;;;;;;;20.65;100.00;100878.81;5069878;28;20044;-87
2022/07/20 06:58:08;;;;;;;9.50;2.05;;;;;;;20.23;100.00;100857.19;5073319;28;20045;-87
2022/07/20 07:00:35;;;;;;;7.95;2.45;;;;;;;19.62;100.00;100878.56;5079044;28;20040;-86
2022/07/20 07:03:02;;;;;;;8.50;2.30;;;;;;;19.25;100.00;100854.69;5070294;28;20134;-86
2022/07/20 07:05:29;;;;;;;8.07;2.38;;;;;;;19.04;100.00;100857.09;5078907;28;20052;-85
2022/07/20 07:07:56;;;;;;;8.05;2.65;;;;;;;19.61;100.00;100894.59;5067831;28;20794;-86
2022/07/20 07:10:25;;;;;;;8.88;2.35;;;;;;;19.38;100.00;100859.94;5081323;28;20044;-86
2022/07/20 07:12:58;;;;;;;6.28;2.00;;;;;;;19.59;100.00;100904.50;5076573;28;20056;-86
2022/07/20 07:15:25;;;;;;;10.43;2.22;;;;;;;19.46;100.00;100870.88;5071927;28;20047;-86
2022/07/20 07:17:55;;;;;;;11.27;2.58;;;;;;;19.45;100.00;100844.44;5076206;28;20473;-87
2022/07/20 07:20:22;;;;;;;9.38;2.33;;;;;;;19.77;100.00;100878.41;5071009;28;20126;-88
2022/07/20 07:22:51;;;;;;;6.72;2.35;;;;;;;19.91;100.00;100918.94;5077232;28;20047;-87
2022/07/20 07:25:21;;;;;;;5.22;1.83;;;;;;;20.53;100.00;100900.19;5086425;28;20056;-88
2022/07/20 07:27:48;;;;;;;7.45;1.80;;;;;;;20.01;100.00;100859.78;5105001;28;20046;-87
2022/07/20 07:30:14;;;;;;;7.15;2.03;;;;;;;19.80;100.00;100894.16;5096912;28;20434;-85
2022/07/20 07:32:43;;;;;;;6.70;2.13;;;;;;;19.71;100.00;100871.72;5103731;28;20481;-87
2022/07/20 07:35:10;;;;;;;6.18;1.77;;;;;;;19.05;100.00;100903.03;5101020;28;20052;-86
2022/07/20 07:37:38;;;;;;;5.50;1.67;;;;;;;19.66;100.00;100925.19;5088500;28;20043;-86
2022/07/20 07:40:09;;;;;;;6.20;1.63;;;;;;;19.55;100.00;100930.44;5095664;28;20067;-87
2022/07/20 07:42:37;;;;;;;7.40;1.40;;;;;;;19.13;100.00;100911.31;5098167;28;20048;-86
2022/07/20 07:45:07;;;;;;;8.60;1.63;;;;;;;18.63;100.00;100910.31;5079121;28;20136;-87
2022/07/20 07:47:34;;;;;;;6.18;1.90;;;;;;;18.49;100.00;100893.59;5072562;28;20545;-86
2022/07/20 07:50:01;;;;;;;5.72;1.58;;;;;;;19.07;100.00;100933.81;5072074;28;20054;-86
2022/07/20 07:52:28;;;;;;;4.93;1.80;;;;;;;18.87;100.00;100908.66;5080343;28;20051;-86
2022/07/20 07:54:55;;;;;;;6.35;1.88;;;;;;;19.12;100.00;100878.63;5075267;28;20112;-86
2022/07/20 07:57:21;;;;;;;10.05;2.38;;;;;;;18.72;100.00;100939.72;5081782;28;20042;-87
2022/07/20 07:59:48;;;;;;;7.22;2.10;;;;;;;18.60;100.00;100928.16;5081983;28;20048;-86
2022/07/20 08:02:15;;;;;;;9.70;1.90;;;;;;;18.12;100.00;100905.81;5083760;28;20048;-87
2022/07/20 08:04:42;;;;;;;6.75;1.70;;;;;;;18.27;100.00;100938.38;5068567;28;20052;-87
2022/07/20 08:07:09;;;;;;;7.13;1.70;;;;;;;18.85;100.00;100952.19;5087698;28;20040;-86
2022/07/20 08:09:35;;;;;;;9.93;1.85;;;;;;;18.80;100.00;100941.84;5062099;28;20428;-87
2022/07/20 08:12:03;;;;;;;5.45;1.77;;;;;;;18.87;100.00;100955.56;5072568;28;20702;-87
2022/07/20 08:14:30;;;;;;;6.22;1.88;;;;;;;18.73;100.00;100975.06;5072559;28;20059;-87
2022/07/20 08:16:57;;;;;;;5.72;1.70;;;;;;;18.94;100.00;100972.78;5075916;28;20050;-88
2022/07/20 08:19:24;;;;;;;8.25;2.33;;;;;;;19.20;100.00;100989.53;5073225;28;20094;-87
2022/07/20 08:21:51;;;;;;;6.93;1.88;;;;;;;18.92;100.00;100953.47;5063807;28;20405;-87
2022/07/20 08:24:18;;;;;;;8.82;1.88;;;;;;;19.26;100.00;100957.25;5064406;28;20045;-87
2022/07/20 08:26:45;;;;;;;8.40;1.92;;;;;;;19.43;100.00;100940.13;5085819;28;20044;-86
2022/07/20 08:29:11;;;;;;;8.48;1.90;;;;;;;19.31;100.00;100962.22;5071310;28;20044;-87
2022/07/20 08:31:38;;;;;;;10.30;2.00;;;;;;;19.25;100.00;100982.09;5087859;28;20538;-87
2022/07/20 08:34:06;;;;;;;5.95;1.80;;;;;;;19.30;100.00;100985.28;5088668;28;20085;-87
2022/07/20 08:36:33;;;;;;;6.82;1.90;;;;;;;19.17;100.00;100960.56;5077229;28;20312;-86
2022/07/20 08:39:00;;;;;;;9.00;2.10;;;;;;;19.34;100.00;100978.78;5077651;28;20048;-87
2022/07/20 08:41:27;;;;;;;6.00;1.60;;;;;;;19.13;100.00;100961.72;5093307;28;20043;-86
2022/07/20 08:43:54;;;;;;;8.05;1.90;;;;;;;18.93;100.00;100987.84;5078538;28;20130;-85
2022/07/20 08:46:23;;;;;;;10.27;2.30;;;;;;;19.10;100.00;101021.16;5090608;28;20058;-86
2022/07/20 08:48:51;;;;;;;6.30;1.88;;;;;;;19.09;100.00;101029.25;5089460;28;20067;-87
2022/07/20 08:51:18;;;;;;;5.63;1.88;;;;;;;18.42;100.00;100995.69;5080563;28;20052;-85
2022/07/20 08:53:48;;;;;;;8.93;2.17;;;;;;;18.40;100.00;100984.34;5080880;28;20055;-88
2022/07/20 08:56:15;;;;;;;7.20;1.80;;;;;;;18.97;100.00;100996.44;5084257;28;20666;-86
2022/07/20 08:58:42;;;;;;;10.30;2.33;;;;;;;19.00;100.00;101033.38;5085240;28;20040;-86
2022/07/20 09:01:17;;;;;;;5.25;1.50;;;;;;;19.20;100.00;101010.78;5071581;28;20075;-85
2022/07/20 09:04:02;;;;;;;12.25;2.00;;;;;;;19.33;100.00;101016.91;5078620;28;20412;-86
2022/07/20 09:06:47;;;;;;;5.72;1.50;;;;;;;19.41;100.00;101008.44;5088449;28;20457;-86
2022/07/20 09:09:14;;;;;;;7.53;1.80;;;;;;;19.33;100.00;100994.81;5077081;28;20132;-86
2022/07/20 09:11:42;;;;;;;6.47;1.90;;;;;;;19.38;100.00;101056.41;5091457;28;20524;-85
2022/07/20 09:14:09;;;;;;;6.90;1.52;;;;;;;19.27;100.00;101037.75;5100290;28;20403;-85
2022/07/20 09:16:48;;;;;;;11.13;2.45;;;;;;;19.38;100.00;101053.75;5072540;28;20044;-86
2022/07/20 09:19:16;;;;;;;7.80;1.52;;;;;;;19.23;100.00;101007.03;5098873;28;20058;-86
2022/07/20 09:21:47;;;;;;;7.60;1.80;;;;;;;19.01;100.00;101013.84;5077221;28;20155;-86
2022/07/20 09:24:19;;;;;;;6.10;1.75;;;;;;;19.51;100.00;101028.06;5081551;28;20060;-87
2022/07/20 09:27:03;;;;;;;9.02;2.03;;;;;;;19.35;100.00;101014.16;5074484;28;20466;-86
2022/07/20 09:29:30;;;;;;;5.10;1.40;;;;;;;19.58;100.00;101024.97;5082446;28;20075;-87
2022/07/20 09:32:03;;;;;;;9.90;1.80;;;;;;;19.71;100.00;101066.47;5081280;28;20050;-87
2022/07/20 09:34:36;;;;;;;5.47;1.80;;;;;;;19.54;100.00;101056.19;5083541;28;20067;-86
2022/07/20 09:37:15;;;;;;;8.32;1.90;;;;;;;19.82;100.00;101052.47;5100481;28;20047;-86
2022/07/20 09:40:00;;;;;;;5.70;1.67;;;;;;;19.81;100.00;101010.06;5073193;28;20070;-84
2022/07/20 09:42:41;;;;;;;7.43;1.75;;;;;;;19.84;100.00;101042.56;5086050;28;20417;-86
2022/07/20 09:45:26;;;;;;;7.90;1.77;;;;;;;20.36;100.00;101059.22;5066553;28;20079;-85
2022/07/20 09:48:12;;;;;;;7.32;2.00;;;;;;;19.80;100.00;101032.28;5085714;28;20044;-86
2022/07/20 09:50:44;;;;;;;8.23;1.88;;;;;;;19.47;100.00;101023.91;5075126;28;20131;-86
2022/07/20 09:53:13;;;;;;;7.07;1.70;;;;;;;19.57;100.00;101037.41;5084544;28;20071;-85
2022/07/20 09:55:41;;;;;;;7.55;1.63;;;;;;;19.68;100.00;101073.81;5072686;28;20101;-86
2022/07/20 09:58:09;;;;;;;12.00;1.92;;;;;;;19.26;100.00;101051.97;5058653;28;20052;-86
2022/07/20 10:00:36;;;;;;;7.60;1.60;;;;;;;19.77;100.00;101059.06;5070299;28;20050;-86
2022/07/20 10:03:12;;;;;;;5.65;1.92;;;;;;;19.28;100.00;101035.00;5061497;28;20056;-86
2022/07/20 10:05:40;;;;;;;8.20;2.00;;;;;;;19.48;100.00;101046.88;5088434;28;20056;-86
2022/07/20 10:08:11;;;;;;;5.70;1.48;;;;;;;19.82;100.00;101091.47;5086157;28;20043;-86
2022/07/20 10:10:38;;;;;;;6.32;1.80;;;;;;;19.73;100.00;101067.25;5092521;28;20075;-86
2022/07/20 10:13:05;;;;;;;8.93;1.80;;;;;;;19.08;100.00;101003.66;5087378;28;20069;-87
2022/07/20 10:15:56;;;;;;;6.93;1.58;;;;;;;19.48;100.00;101043.38;5073476;28;20058;-85
2022/07/20 10:18:23;;;;;;;8.15;2.10;;;;;;;19.21;100.00;101043.47;5073226;28;20048;-86
2022/07/20 10:20:50;;;;;;;4.97;1.23;;;;;;;19.69;100.00;101068.41;5092459;28;20048;-86
2022/07/20 10:23:28;;;;;;;4.97;1.67;;;;;;;19.65;100.00;101039.50;5068391;28;20080;-86
2022/07/20 10:25:56;;;;;;;7.47;2.10;;;;;;;19.39;100.00;101038.69;5073077;28;20105;-86
2022/07/20 10:28:32;;;;;;;7.60;1.90;;;;;;;19.67;100.00;101090.72;5072771;28;20052;-86
2022/07/20 10:31:06;;;;;;;9.90;2.20;;;;;;;19.36;100.00;101103.47;5077648;28;20050;-85
2022/07/20 10:33:35;;;;;;;6.70;1.98;;;;;;;19.09;100.00;101079.69;5081024;28;20588;-85
2022/07/20 10:36:43;;;;;;;8.50;1.90;;;;;;;19.02;100.00;101086.34;5076371;28;20473;-85
2022/07/20 10:39:46;;;;;;;6.70;1.80;;;;;;;19.77;100.00;101096.25;5081552;28;20040;-86
2022/07/20 10:42:33;;;;;;;7.93;2.00;;;;;;;19.62;100.00;101096.34;5073852;28;20474;-85
2022/07/20 10:45:27;;;;;;;7.60;1.90;;;;;;;19.64;100.00;101102.41;5076303;28;20079;-85
2022/07/20 10:48:00;;;;;;;6.68;2.05;;;;;;;19.46;100.00;101080.66;5070370;28;20135;-85
2022/07/20 10:50:36;;;;;;;5.72;1.70;;;;;;;19.53;100.00;101086.38;5092859;28;20043;-85
2022/07/20 10:53:15;;;;;;;8.75;2.10;;;;;;;19.79;100.00;101104.97;5077486;28;20045;-86
2022/07/20 10:55:44;;;;;;;4.07;1.40;;;;;;;20.16;100.00;101108.50;5071673;28;20064;-86
2022/07/20 10:58:17;;;;;;;6.97;2.20;;;;;;;20.04;100.00;101107.59;5084152;28;20111;-85
2022/07/20 11:00:56;;;;;;;6.40;1.92;;;;;;;19.71;100.00;101047.06;5058506;28;20083;-88
2022/07/20 11:03:38;;;;;;;7.45;1.80;;;;;;;20.05;100.00;101103.97;5077626;28;20040;-87
2022/07/20 11:06:18;;;;;;;6.30;1.92;;;;;;;19.88;100.00;101104.31;5078128;28;20051;-87
2022/07/20 11:08:58;;;;;;;8.63;2.00;;;;;;;19.71;100.00;101087.75;5077670;28;20055;-86
2022/07/20 11:11:34;;;;;;;7.30;2.30;;;;;;;19.78;100.00;101055.44;5057733;28;20060;-87
2022/07/20 11:14:04;;;;;;;10.02;2.05;;;;;;;20.12;100.00;101088.44;5069182;28;20391;-87
2022/07/20 11:16:33;;;;;;;7.57;2.05;;;;;;;20.30;100.00;101104.84;5088851;28;20067;-87
2022/07/20 11:19:03;;;;;;;7.72;2.20;;;;;;;20.09;100.00;101094.81;5077353;28;20375;-86
2022/07/20 11:21:35;;;;;;;7.00;1.73;;;;;;;19.93;100.00;101075.59;5077780;28;20052;-87
2022/07/20 11:24:27;;;;;;;5.60;1.80;;;;;;;20.13;100.00;101054.72;5084393;28;20107;-87
2022/07/20 11:26:55;;;;;;;4.78;1.50;;;;;;;19.92;100.00;101050.84;5088506;28;20134;-88